sensor_id;sensor_type;location;lat;lon;timestamp;temperature;humidity
6110;DHT22;3085;49.444;11.054;2023-05-19T00:02:13;11.90;99.90
6110;DHT22;3085;49.444;11.054;2023-05-19T00:04:40;12.00;99.90
6110;DHT22;3085;49.444;11.054;2023-05-19T00:07:08;12.00;99.90
6110;DHT22;3085;49.444;11.054;2023-05-19T00:09:36;11.80;99.90
6110;DHT22;3085;49.444;11.054;2023-05-19T00:12:03;11.90;99.90
6110;DHT22;3085;49.444;11.054;2023-05-19T00:14:32;12.00;99.90
6110;DHT22;3085;49.444;11.054;2023-05-19T00:16:59;12.00;99.90
6110;DHT22;3085;49.444;11.054;2023-05-19T00:19:29;12.00;99.90
6110;DHT22;3085;49.444;11.054;2023-05-19T00:21:56;12.00;99.90
6110;DHT22;3085;49.444;11.054;2023-05-19T00:24:23;12.00;99.90
6110;DHT22;3085;49.444;11.054;2023-05-19T00:26:50;12.00;99.90
6110;DHT22;3085;49.444;11.054;2023-05-19T00:29:17;12.00;99.90
6110;DHT22;3085;49.444;11.054;2023-05-19T00:31:45;12.00;99.90
6110;DHT22;3085;49.444;11.054;2023-05-19T00:34:12;12.00;99.90
6110;DHT22;3085;49.444;11.054;2023-05-19T00:36:39;12.00;99.90
6110;DHT22;3085;49.444;11.054;2023-05-19T00:39:05;12.10;99.90
6110;DHT22;3085;49.444;11.054;2023-05-19T00:41:32;12.00;99.90
6110;DHT22;3085;49.444;11.054;2023-05-19T00:43:59;12.00;99.90
6110;DHT22;3085;49.444;11.054;2023-05-19T00:46:26;12.10;99.90
6110;DHT22;3085;49.444;11.054;2023-05-19T00:48:56;12.20;99.90
6110;DHT22;3085;49.444;11.054;2023-05-19T00:51:23;12.20;99.90
6110;DHT22;3085;49.444;11.054;2023-05-19T00:53:51;12.10;99.90
6110;DHT22;3085;49.444;11.054;2023-05-19T00:56:19;12.00;99.90
6110;DHT22;3085;49.444;11.054;2023-05-19T00:58:47;12.00;99.90
6110;DHT22;3085;49.444;11.054;2023-05-19T01:01:16;11.90;99.90
6110;DHT22;3085;49.444;11.054;2023-05-19T01:03:47;12.00;99.90
6110;DHT22;3085;49.444;11.054;2023-05-19T01:06:15;11.90;99.90
6110;DHT22;3085;49.444;11.054;2023-05-19T01:08:43;11.90;99.90
6110;DHT22;3085;49.444;11.054;2023-05-19T01:11:10;11.90;99.90
6110;DHT22;3085;49.444;11.054;2023-05-19T01:13:37;11.90;99.90
6110;DHT22;3085;49.444;11.054;2023-05-19T01:16:10;11.90;99.90
6110;DHT22;3085;49.444;11.054;2023-05-19T01:18:48;11.80;99.90
6110;DHT22;3085;49.444;11.054;2023-05-19T01:27:40;11.40;99.90
6110;DHT22;3085;49.444;11.054;2023-05-19T01:30:28;11.40;99.90
6110;DHT22;3085;49.444;11.054;2023-05-19T01:32:58;11.70;99.90
6110;DHT22;3085;49.444;11.054;2023-05-19T01:35:26;11.50;99.90
6110;DHT22;3085;49.444;11.054;2023-05-19T01:37:55;11.50;99.90
6110;DHT22;3085;49.444;11.054;2023-05-19T01:40:23;11.50;99.90
6110;DHT22;3085;49.444;11.054;2023-05-19T01:42:52;11.60;99.90
6110;DHT22;3085;49.444;11.054;2023-05-19T01:45:20;11.50;99.90
6110;DHT22;3085;49.444;11.054;2023-05-19T01:47:52;11.50;99.90
6110;DHT22;3085;49.444;11.054;2023-05-19T01:50:19;11.40;99.90
6110;DHT22;3085;49.444;11.054;2023-05-19T01:52:46;11.50;99.90
6110;DHT22;3085;49.444;11.054;2023-05-19T01:55:13;12.00;99.90
6110;DHT22;3085;49.444;11.054;2023-05-19T01:57:46;11.30;99.90
6110;DHT22;3085;49.444;11.054;2023-05-19T02:00:22;11.40;99.90
6110;DHT22;3085;49.444;11.054;2023-05-19T02:02:59;12.10;99.90
6110;DHT22;3085;49.444;11.054;2023-05-19T02:05:33;11.40;99.90
6110;DHT22;3085;49.444;11.054;2023-05-19T02:08:09;11.20;99.90
6110;DHT22;3085;49.444;11.054;2023-05-19T02:10:40;11.30;99.90
6110;DHT22;3085;49.444;11.054;2023-05-19T02:13:10;11.30;99.90
6110;DHT22;3085;49.444;11.054;2023-05-19T02:15:39;11.20;99.90
6110;DHT22;3085;49.444;11.054;2023-05-19T02:18:10;11.20;99.90
6110;DHT22;3085;49.444;11.054;2023-05-19T02:20:37;11.20;99.90
6110;DHT22;3085;49.444;11.054;2023-05-19T02:23:04;11.20;99.90
6110;DHT22;3085;49.444;11.054;2023-05-19T02:25:30;11.30;99.90
6110;DHT22;3085;49.444;11.054;2023-05-19T02:27:57;11.40;99.90
6110;DHT22;3085;49.444;11.054;2023-05-19T02:30:24;11.40;99.90
6110;DHT22;3085;49.444;11.054;2023-05-19T02:32:51;11.40;99.90
6110;DHT22;3085;49.444;11.054;2023-05-19T02:35:20;11.40;99.90
6110;DHT22;3085;49.444;11.054;2023-05-19T02:37:47;11.40;99.90
6110;DHT22;3085;49.444;11.054;2023-05-19T02:40:13;11.40;99.90
6110;DHT22;3085;49.444;11.054;2023-05-19T02:42:40;11.60;99.90
6110;DHT22;3085;49.444;11.054;2023-05-19T02:45:08;11.60;99.90
6110;DHT22;3085;49.444;11.054;2023-05-19T02:47:34;11.60;99.90
6110;DHT22;3085;49.444;11.054;2023-05-19T02:50:03;11.50;99.90
6110;DHT22;3085;49.444;11.054;2023-05-19T02:52:31;11.50;99.90
6110;DHT22;3085;49.444;11.054;2023-05-19T02:54:58;11.40;99.90
6110;DHT22;3085;49.444;11.054;2023-05-19T02:57:25;11.50;99.90
6110;DHT22;3085;49.444;11.054;2023-05-19T02:59:52;11.40;99.90
6110;DHT22;3085;49.444;11.054;2023-05-19T03:02:18;11.40;99.90
6110;DHT22;3085;49.444;11.054;2023-05-19T03:04:45;11.40;99.90
6110;DHT22;3085;49.444;11.054;2023-05-19T03:07:12;11.50;99.90
6110;DHT22;3085;49.444;11.054;2023-05-19T03:09:41;11.50;99.90
6110;DHT22;3085;49.444;11.054;2023-05-19T03:12:08;11.40;99.90
6110;DHT22;3085;49.444;11.054;2023-05-19T03:14:35;11.50;99.90
6110;DHT22;3085;49.444;11.054;2023-05-19T03:17:03;11.50;99.90
6110;DHT22;3085;49.444;11.054;2023-05-19T03:19:32;11.60;99.90
6110;DHT22;3085;49.444;11.054;2023-05-19T03:21:58;11.50;99.90
6110;DHT22;3085;49.444;11.054;2023-05-19T03:24:25;11.40;99.90
6110;DHT22;3085;49.444;11.054;2023-05-19T03:26:53;11.50;99.90
6110;DHT22;3085;49.444;11.054;2023-05-19T03:29:20;11.50;99.90
6110;DHT22;3085;49.444;11.054;2023-05-19T03:31:47;11.50;99.90
6110;DHT22;3085;49.444;11.054;2023-05-19T03:34:14;11.50;99.90
6110;DHT22;3085;49.444;11.054;2023-05-19T03:36:40;11.40;99.90
6110;DHT22;3085;49.444;11.054;2023-05-19T03:39:09;11.40;99.90
6110;DHT22;3085;49.444;11.054;2023-05-19T03:41:36;11.40;99.90
6110;DHT22;3085;49.444;11.054;2023-05-19T03:44:04;11.40;99.90
6110;DHT22;3085;49.444;11.054;2023-05-19T03:46:31;11.40;99.90
6110;DHT22;3085;49.444;11.054;2023-05-19T03:48:58;11.50;99.90
6110;DHT22;3085;49.444;11.054;2023-05-19T03:51:25;11.50;99.90
6110;DHT22;3085;49.444;11.054;2023-05-19T03:53:53;11.50;99.90
6110;DHT22;3085;49.444;11.054;2023-05-19T03:56:20;11.40;99.90
6110;DHT22;3085;49.444;11.054;2023-05-19T03:58:49;11.40;99.90
6110;DHT22;3085;49.444;11.054;2023-05-19T04:01:17;11.60;99.90
6110;DHT22;3085;49.444;11.054;2023-05-19T04:03:44;11.40;99.90
6110;DHT22;3085;49.444;11.054;2023-05-19T04:06:11;11.40;99.90
6110;DHT22;3085;49.444;11.054;2023-05-19T04:08:38;11.50;99.90
6110;DHT22;3085;49.444;11.054;2023-05-19T04:11:05;11.40;99.90
6110;DHT22;3085;49.444;11.054;2023-05-19T04:13:32;11.40;99.90
6110;DHT22;3085;49.444;11.054;2023-05-19T04:15:59;11.40;99.90
6110;DHT22;3085;49.444;11.054;2023-05-19T04:18:27;11.40;99.90
6110;DHT22;3085;49.444;11.054;2023-05-19T04:20:54;11.40;99.90
6110;DHT22;3085;49.444;11.054;2023-05-19T04:23:21;11.40;99.90
6110;DHT22;3085;49.444;11.054;2023-05-19T04:25:48;11.50;99.90
6110;DHT22;3085;49.444;11.054;2023-05-19T04:28:14;11.50;99.90
6110;DHT22;3085;49.444;11.054;2023-05-19T04:30:42;11.60;99.90
6110;DHT22;3085;49.444;11.054;2023-05-19T04:33:11;11.50;99.90
6110;DHT22;3085;49.444;11.054;2023-05-19T04:35:39;11.50;99.90
6110;DHT22;3085;49.444;11.054;2023-05-19T04:38:06;11.60;99.90
6110;DHT22;3085;49.444;11.054;2023-05-19T04:40:34;11.70;99.90
6110;DHT22;3085;49.444;11.054;2023-05-19T04:43:01;11.60;99.90
6110;DHT22;3085;49.444;11.054;2023-05-19T04:45:28;11.60;99.90
6110;DHT22;3085;49.444;11.054;2023-05-19T04:47:57;11.70;99.90
6110;DHT22;3085;49.444;11.054;2023-05-19T04:50:24;11.70;99.90
6110;DHT22;3085;49.444;11.054;2023-05-19T04:52:54;11.50;99.90
6110;DHT22;3085;49.444;11.054;2023-05-19T04:55:23;11.80;99.90
6110;DHT22;3085;49.444;11.054;2023-05-19T04:57:50;11.80;99.90
6110;DHT22;3085;49.444;11.054;2023-05-19T05:00:18;11.90;99.90
6110;DHT22;3085;49.444;11.054;2023-05-19T05:02:45;12.00;99.90
6110;DHT22;3085;49.444;11.054;2023-05-19T05:05:12;12.00;99.90
6110;DHT22;3085;49.444;11.054;2023-05-19T05:07:38;12.10;99.90
6110;DHT22;3085;49.444;11.054;2023-05-19T05:10:08;12.10;99.90
6110;DHT22;3085;49.444;11.054;2023-05-19T05:12:36;12.10;99.90
6110;DHT22;3085;49.444;11.054;2023-05-19T05:15:04;12.40;99.90
6110;DHT22;3085;49.444;11.054;2023-05-19T05:17:31;12.30;99.90
6110;DHT22;3085;49.444;11.054;2023-05-19T05:20:00;12.30;99.90
6110;DHT22;3085;49.444;11.054;2023-05-19T05:22:27;12.20;99.90
6110;DHT22;3085;49.444;11.054;2023-05-19T05:24:55;12.10;99.90
6110;DHT22;3085;49.444;11.054;2023-05-19T05:27:23;12.20;99.90
6110;DHT22;3085;49.444;11.054;2023-05-19T05:29:51;12.20;99.90
6110;DHT22;3085;49.444;11.054;2023-05-19T05:32:18;12.20;99.90
6110;DHT22;3085;49.444;11.054;2023-05-19T05:34:44;12.20;99.90
6110;DHT22;3085;49.444;11.054;2023-05-19T05:37:11;12.20;99.90
6110;DHT22;3085;49.444;11.054;2023-05-19T05:39:38;12.30;99.90
6110;DHT22;3085;49.444;11.054;2023-05-19T05:42:05;12.40;99.90
6110;DHT22;3085;49.444;11.054;2023-05-19T05:44:34;12.30;99.90
6110;DHT22;3085;49.444;11.054;2023-05-19T05:47:02;12.40;99.90
6110;DHT22;3085;49.444;11.054;2023-05-19T05:49:29;12.50;99.90
6110;DHT22;3085;49.444;11.054;2023-05-19T05:51:56;12.60;99.90
6110;DHT22;3085;49.444;11.054;2023-05-19T05:54:24;12.60;99.90
6110;DHT22;3085;49.444;11.054;2023-05-19T05:56:51;12.80;99.90
6110;DHT22;3085;49.444;11.054;2023-05-19T05:59:18;12.80;99.90
6110;DHT22;3085;49.444;11.054;2023-05-19T06:01:46;12.90;99.90
6110;DHT22;3085;49.444;11.054;2023-05-19T06:04:13;13.10;99.90
6110;DHT22;3085;49.444;11.054;2023-05-19T06:06:40;13.20;99.90
6110;DHT22;3085;49.444;11.054;2023-05-19T06:09:07;13.00;99.90
6110;DHT22;3085;49.444;11.054;2023-05-19T06:11:34;13.00;99.90
6110;DHT22;3085;49.444;11.054;2023-05-19T06:14:01;13.10;99.90
6110;DHT22;3085;49.444;11.054;2023-05-19T06:16:28;13.10;99.90
6110;DHT22;3085;49.444;11.054;2023-05-19T06:18:57;12.90;99.90
6110;DHT22;3085;49.444;11.054;2023-05-19T06:21:24;13.00;99.90
6110;DHT22;3085;49.444;11.054;2023-05-19T06:23:51;13.10;99.90
6110;DHT22;3085;49.444;11.054;2023-05-19T06:26:17;13.10;99.90
6110;DHT22;3085;49.444;11.054;2023-05-19T06:28:44;13.40;99.90
6110;DHT22;3085;49.444;11.054;2023-05-19T06:31:11;13.20;99.90
6110;DHT22;3085;49.444;11.054;2023-05-19T06:33:38;13.20;99.90
6110;DHT22;3085;49.444;11.054;2023-05-19T06:36:06;13.20;99.90
6110;DHT22;3085;49.444;11.054;2023-05-19T06:38:34;13.20;99.90
6110;DHT22;3085;49.444;11.054;2023-05-19T06:41:01;13.30;99.90
6110;DHT22;3085;49.444;11.054;2023-05-19T06:43:28;13.30;99.90
6110;DHT22;3085;49.444;11.054;2023-05-19T06:45:54;13.60;99.90
6110;DHT22;3085;49.444;11.054;2023-05-19T06:48:21;13.40;99.90
6110;DHT22;3085;49.444;11.054;2023-05-19T06:50:48;14.30;99.90
6110;DHT22;3085;49.444;11.054;2023-05-19T06:53:18;13.40;99.90
6110;DHT22;3085;49.444;11.054;2023-05-19T06:55:45;13.40;99.90
6110;DHT22;3085;49.444;11.054;2023-05-19T06:58:14;13.40;99.90
6110;DHT22;3085;49.444;11.054;2023-05-19T07:00:41;13.40;99.90
6110;DHT22;3085;49.444;11.054;2023-05-19T07:03:08;13.50;99.90
6110;DHT22;3085;49.444;11.054;2023-05-19T07:05:35;13.40;99.90
6110;DHT22;3085;49.444;11.054;2023-05-19T07:08:02;13.70;99.90
6110;DHT22;3085;49.444;11.054;2023-05-19T07:10:31;13.50;99.90
6110;DHT22;3085;49.444;11.054;2023-05-19T07:13:00;13.80;99.90
6110;DHT22;3085;49.444;11.054;2023-05-19T07:15:27;13.70;99.90
6110;DHT22;3085;49.444;11.054;2023-05-19T07:17:54;13.70;99.90
6110;DHT22;3085;49.444;11.054;2023-05-19T07:20:20;13.60;99.90
6110;DHT22;3085;49.444;11.054;2023-05-19T07:22:47;13.90;99.90
6110;DHT22;3085;49.444;11.054;2023-05-19T07:25:14;14.10;99.90
6110;DHT22;3085;49.444;11.054;2023-05-19T07:27:42;14.30;99.90
6110;DHT22;3085;49.444;11.054;2023-05-19T07:30:10;14.40;99.90
6110;DHT22;3085;49.444;11.054;2023-05-19T07:32:37;14.40;99.90
6110;DHT22;3085;49.444;11.054;2023-05-19T07:35:05;14.40;99.90
6110;DHT22;3085;49.444;11.054;2023-05-19T07:37:32;14.50;99.90
6110;DHT22;3085;49.444;11.054;2023-05-19T07:39:59;14.60;99.90
6110;DHT22;3085;49.444;11.054;2023-05-19T07:42:26;14.60;99.90
6110;DHT22;3085;49.444;11.054;2023-05-19T07:44:54;14.80;99.90
6110;DHT22;3085;49.444;11.054;2023-05-19T07:47:20;14.80;99.90
6110;DHT22;3085;49.444;11.054;2023-05-19T07:49:47;15.00;99.90
6110;DHT22;3085;49.444;11.054;2023-05-19T07:52:14;15.00;99.90
6110;DHT22;3085;49.444;11.054;2023-05-19T07:54:42;15.20;99.90
6110;DHT22;3085;49.444;11.054;2023-05-19T07:57:09;15.10;99.90
6110;DHT22;3085;49.444;11.054;2023-05-19T07:59:36;15.10;99.90
6110;DHT22;3085;49.444;11.054;2023-05-19T08:02:04;15.10;99.90
6110;DHT22;3085;49.444;11.054;2023-05-19T08:04:31;15.00;99.90
6110;DHT22;3085;49.444;11.054;2023-05-19T08:06:58;15.10;99.90
6110;DHT22;3085;49.444;11.054;2023-05-19T08:09:25;15.20;99.90
6110;DHT22;3085;49.444;11.054;2023-05-19T08:11:52;15.20;99.90
6110;DHT22;3085;49.444;11.054;2023-05-19T08:14:18;15.70;99.90
6110;DHT22;3085;49.444;11.054;2023-05-19T08:16:47;15.10;99.90
6110;DHT22;3085;49.444;11.054;2023-05-19T08:19:15;15.20;99.90
6110;DHT22;3085;49.444;11.054;2023-05-19T08:21:42;15.20;99.90
6110;DHT22;3085;49.444;11.054;2023-05-19T08:24:09;15.20;99.90
6110;DHT22;3085;49.444;11.054;2023-05-19T08:26:35;15.10;99.90
6110;DHT22;3085;49.444;11.054;2023-05-19T08:29:02;15.00;99.90
6110;DHT22;3085;49.444;11.054;2023-05-19T08:31:29;15.10;99.90
6110;DHT22;3085;49.444;11.054;2023-05-19T08:33:56;15.10;99.90
6110;DHT22;3085;49.444;11.054;2023-05-19T08:36:24;15.10;99.90
6110;DHT22;3085;49.444;11.054;2023-05-19T08:38:51;15.10;99.90
6110;DHT22;3085;49.444;11.054;2023-05-19T08:41:18;15.20;99.90
6110;DHT22;3085;49.444;11.054;2023-05-19T08:43:45;15.30;99.90
6110;DHT22;3085;49.444;11.054;2023-05-19T08:46:13;15.30;99.90
6110;DHT22;3085;49.444;11.054;2023-05-19T08:48:41;15.30;99.90
6110;DHT22;3085;49.444;11.054;2023-05-19T08:51:13;15.40;99.90
6110;DHT22;3085;49.444;11.054;2023-05-19T08:53:48;15.40;99.90
6110;DHT22;3085;49.444;11.054;2023-05-19T08:56:20;15.40;99.90
6110;DHT22;3085;49.444;11.054;2023-05-19T08:58:48;15.50;99.90
6110;DHT22;3085;49.444;11.054;2023-05-19T09:01:16;15.40;99.90
6110;DHT22;3085;49.444;11.054;2023-05-19T09:03:43;15.50;99.90
6110;DHT22;3085;49.444;11.054;2023-05-19T09:06:10;15.50;99.90
6110;DHT22;3085;49.444;11.054;2023-05-19T09:08:38;15.60;99.90
6110;DHT22;3085;49.444;11.054;2023-05-19T09:11:07;15.60;99.90
6110;DHT22;3085;49.444;11.054;2023-05-19T09:13:34;15.40;99.90
6110;DHT22;3085;49.444;11.054;2023-05-19T09:16:01;15.60;99.90
6110;DHT22;3085;49.444;11.054;2023-05-19T09:18:29;15.70;99.90
6110;DHT22;3085;49.444;11.054;2023-05-19T09:20:57;15.60;99.90
6110;DHT22;3085;49.444;11.054;2023-05-19T09:23:26;15.60;99.90
6110;DHT22;3085;49.444;11.054;2023-05-19T09:25:54;15.60;99.90
6110;DHT22;3085;49.444;11.054;2023-05-19T09:28:27;15.90;99.90
6110;DHT22;3085;49.444;11.054;2023-05-19T09:30:58;15.60;99.90
6110;DHT22;3085;49.444;11.054;2023-05-19T09:33:25;15.90;99.90
6110;DHT22;3085;49.444;11.054;2023-05-19T09:35:53;15.70;99.90
6110;DHT22;3085;49.444;11.054;2023-05-19T09:38:19;16.50;99.90
6110;DHT22;3085;49.444;11.054;2023-05-19T09:40:47;15.60;99.90
6110;DHT22;3085;49.444;11.054;2023-05-19T09:43:14;15.60;99.90
6110;DHT22;3085;49.444;11.054;2023-05-19T09:45:42;15.50;99.90
6110;DHT22;3085;49.444;11.054;2023-05-19T09:48:09;15.60;99.90
6110;DHT22;3085;49.444;11.054;2023-05-19T09:50:37;15.70;99.90
6110;DHT22;3085;49.444;11.054;2023-05-19T09:53:03;15.70;99.90
6110;DHT22;3085;49.444;11.054;2023-05-19T09:55:30;15.70;99.90
6110;DHT22;3085;49.444;11.054;2023-05-19T09:57:58;15.90;99.90
6110;DHT22;3085;49.444;11.054;2023-05-19T10:00:29;16.00;99.90
6110;DHT22;3085;49.444;11.054;2023-05-19T10:02:59;16.10;99.90
6110;DHT22;3085;49.444;11.054;2023-05-19T10:05:30;16.00;99.90
6110;DHT22;3085;49.444;11.054;2023-05-19T10:07:57;16.00;99.90
6110;DHT22;3085;49.444;11.054;2023-05-19T10:10:26;16.20;99.90
6110;DHT22;3085;49.444;11.054;2023-05-19T10:12:54;16.30;99.90
6110;DHT22;3085;49.444;11.054;2023-05-19T10:15:21;16.20;99.90
6110;DHT22;3085;49.444;11.054;2023-05-19T10:17:49;16.20;99.90
6110;DHT22;3085;49.444;11.054;2023-05-19T10:20:19;16.30;99.90
6110;DHT22;3085;49.444;11.054;2023-05-19T10:22:46;16.40;99.90
6110;DHT22;3085;49.444;11.054;2023-05-19T10:25:15;16.40;99.90
6110;DHT22;3085;49.444;11.054;2023-05-19T10:27:51;16.50;99.90
6110;DHT22;3085;49.444;11.054;2023-05-19T10:30:24;16.50;99.90
6110;DHT22;3085;49.444;11.054;2023-05-19T10:32:51;16.70;99.90
6110;DHT22;3085;49.444;11.054;2023-05-19T10:35:53;16.80;99.90
6110;DHT22;3085;49.444;11.054;2023-05-19T10:38:32;16.80;99.90
6110;DHT22;3085;49.444;11.054;2023-05-19T10:41:04;16.80;99.90
6110;DHT22;3085;49.444;11.054;2023-05-19T10:43:48;17.00;99.90
6110;DHT22;3085;49.444;11.054;2023-05-19T10:46:16;17.00;99.90
6110;DHT22;3085;49.444;11.054;2023-05-19T10:48:44;16.80;99.90
6110;DHT22;3085;49.444;11.054;2023-05-19T10:51:13;16.70;99.90
6110;DHT22;3085;49.444;11.054;2023-05-19T10:53:41;16.90;99.90
6110;DHT22;3085;49.444;11.054;2023-05-19T10:56:11;17.20;99.90
6110;DHT22;3085;49.444;11.054;2023-05-19T10:58:53;17.20;99.90
6110;DHT22;3085;49.444;11.054;2023-05-19T11:01:21;17.50;99.90
6110;DHT22;3085;49.444;11.054;2023-05-19T11:03:50;17.80;99.90
6110;DHT22;3085;49.444;11.054;2023-05-19T11:06:26;17.90;99.90
6110;DHT22;3085;49.444;11.054;2023-05-19T11:08:55;18.00;99.90
6110;DHT22;3085;49.444;11.054;2023-05-19T11:11:22;17.90;99.90
6110;DHT22;3085;49.444;11.054;2023-05-19T11:13:51;17.80;99.90
6110;DHT22;3085;49.444;11.054;2023-05-19T11:16:18;18.00;99.90
6110;DHT22;3085;49.444;11.054;2023-05-19T11:18:52;17.90;99.90
6110;DHT22;3085;49.444;11.054;2023-05-19T11:21:20;18.00;99.90
6110;DHT22;3085;49.444;11.054;2023-05-19T11:23:50;18.00;99.90
6110;DHT22;3085;49.444;11.054;2023-05-19T11:26:38;18.10;99.90
6110;DHT22;3085;49.444;11.054;2023-05-19T11:29:05;18.10;99.90
6110;DHT22;3085;49.444;11.054;2023-05-19T11:31:33;18.10;99.90
6110;DHT22;3085;49.444;11.054;2023-05-19T11:34:00;18.20;99.90
6110;DHT22;3085;49.444;11.054;2023-05-19T11:36:29;18.20;99.90
6110;DHT22;3085;49.444;11.054;2023-05-19T11:39:00;18.40;99.90
6110;DHT22;3085;49.444;11.054;2023-05-19T11:41:26;18.50;99.90
6110;DHT22;3085;49.444;11.054;2023-05-19T11:43:55;18.60;99.90
6110;DHT22;3085;49.444;11.054;2023-05-19T11:46:22;18.70;99.90
6110;DHT22;3085;49.444;11.054;2023-05-19T11:48:49;18.80;99.90
6110;DHT22;3085;49.444;11.054;2023-05-19T11:51:16;18.80;99.90
6110;DHT22;3085;49.444;11.054;2023-05-19T11:53:43;18.80;99.90
6110;DHT22;3085;49.444;11.054;2023-05-19T11:56:12;18.90;99.90
6110;DHT22;3085;49.444;11.054;2023-05-19T11:58:39;19.10;99.90
6110;DHT22;3085;49.444;11.054;2023-05-19T12:01:06;19.10;99.90
6110;DHT22;3085;49.444;11.054;2023-05-19T12:03:34;19.10;99.90
6110;DHT22;3085;49.444;11.054;2023-05-19T12:06:03;18.90;99.90
6110;DHT22;3085;49.444;11.054;2023-05-19T12:08:31;19.00;99.90
6110;DHT22;3085;49.444;11.054;2023-05-19T12:10:58;18.90;99.90
6110;DHT22;3085;49.444;11.054;2023-05-19T12:13:26;19.10;99.90
6110;DHT22;3085;49.444;11.054;2023-05-19T12:15:58;19.20;99.90
6110;DHT22;3085;49.444;11.054;2023-05-19T12:18:29;19.20;99.90
6110;DHT22;3085;49.444;11.054;2023-05-19T12:20:57;19.10;99.90
6110;DHT22;3085;49.444;11.054;2023-05-19T12:23:23;19.20;99.90
6110;DHT22;3085;49.444;11.054;2023-05-19T12:25:52;19.30;99.90
6110;DHT22;3085;49.444;11.054;2023-05-19T12:28:19;19.30;99.90
6110;DHT22;3085;49.444;11.054;2023-05-19T12:30:49;19.30;99.90
6110;DHT22;3085;49.444;11.054;2023-05-19T12:33:16;19.30;99.90
6110;DHT22;3085;49.444;11.054;2023-05-19T12:35:45;19.20;99.90
6110;DHT22;3085;49.444;11.054;2023-05-19T12:38:13;19.30;99.90
6110;DHT22;3085;49.444;11.054;2023-05-19T12:40:40;19.40;99.90
6110;DHT22;3085;49.444;11.054;2023-05-19T12:43:07;19.20;99.90
6110;DHT22;3085;49.444;11.054;2023-05-19T12:45:44;19.40;99.90
6110;DHT22;3085;49.444;11.054;2023-05-19T12:48:12;19.30;99.90
6110;DHT22;3085;49.444;11.054;2023-05-19T12:50:41;19.40;99.90
6110;DHT22;3085;49.444;11.054;2023-05-19T12:53:09;19.50;99.90
6110;DHT22;3085;49.444;11.054;2023-05-19T12:55:38;19.40;99.90
6110;DHT22;3085;49.444;11.054;2023-05-19T12:58:07;19.50;99.90
6110;DHT22;3085;49.444;11.054;2023-05-19T13:00:39;19.60;99.90
6110;DHT22;3085;49.444;11.054;2023-05-19T13:03:15;19.50;99.90
6110;DHT22;3085;49.444;11.054;2023-05-19T13:05:43;19.60;99.90
6110;DHT22;3085;49.444;11.054;2023-05-19T13:08:11;19.60;99.90
6110;DHT22;3085;49.444;11.054;2023-05-19T13:10:40;19.50;99.90
6110;DHT22;3085;49.444;11.054;2023-05-19T13:13:08;19.70;99.90
6110;DHT22;3085;49.444;11.054;2023-05-19T13:15:37;19.90;99.90
6110;DHT22;3085;49.444;11.054;2023-05-19T13:18:07;20.10;99.90
6110;DHT22;3085;49.444;11.054;2023-05-19T13:20:36;20.30;99.90
6110;DHT22;3085;49.444;11.054;2023-05-19T13:23:03;20.40;99.90
6110;DHT22;3085;49.444;11.054;2023-05-19T13:25:31;20.50;99.90
6110;DHT22;3085;49.444;11.054;2023-05-19T13:27:58;20.50;99.90
6110;DHT22;3085;49.444;11.054;2023-05-19T13:30:28;20.70;99.90
6110;DHT22;3085;49.444;11.054;2023-05-19T13:32:55;20.80;99.90
6110;DHT22;3085;49.444;11.054;2023-05-19T13:35:22;20.90;99.90
6110;DHT22;3085;49.444;11.054;2023-05-19T13:37:50;21.80;99.90
6110;DHT22;3085;49.444;11.054;2023-05-19T13:40:17;20.80;99.90
6110;DHT22;3085;49.444;11.054;2023-05-19T13:42:44;20.80;99.90
6110;DHT22;3085;49.444;11.054;2023-05-19T13:45:11;20.70;99.80
6110;DHT22;3085;49.444;11.054;2023-05-19T13:47:37;20.50;99.90
6110;DHT22;3085;49.444;11.054;2023-05-19T13:50:05;20.40;99.90
6110;DHT22;3085;49.444;11.054;2023-05-19T13:52:32;20.60;99.90
6110;DHT22;3085;49.444;11.054;2023-05-19T13:55:00;20.60;99.90
6110;DHT22;3085;49.444;11.054;2023-05-19T13:57:28;20.60;99.90
6110;DHT22;3085;49.444;11.054;2023-05-19T13:59:55;20.70;99.90
6110;DHT22;3085;49.444;11.054;2023-05-19T14:02:21;20.90;99.30
6110;DHT22;3085;49.444;11.054;2023-05-19T14:04:48;20.50;99.60
6110;DHT22;3085;49.444;11.054;2023-05-19T14:07:15;20.60;99.80
6110;DHT22;3085;49.444;11.054;2023-05-19T14:09:42;20.60;99.80
6110;DHT22;3085;49.444;11.054;2023-05-19T14:12:10;20.60;99.80
6110;DHT22;3085;49.444;11.054;2023-05-19T14:14:38;20.70;99.90
6110;DHT22;3085;49.444;11.054;2023-05-19T14:17:05;20.60;99.40
6110;DHT22;3085;49.444;11.054;2023-05-19T14:19:32;20.60;99.50
6110;DHT22;3085;49.444;11.054;2023-05-19T14:21:58;20.60;99.80
6110;DHT22;3085;49.444;11.054;2023-05-19T14:24:25;20.60;99.80
6110;DHT22;3085;49.444;11.054;2023-05-19T14:26:52;20.60;99.80
6110;DHT22;3085;49.444;11.054;2023-05-19T14:29:20;20.50;99.10
6110;DHT22;3085;49.444;11.054;2023-05-19T14:31:47;20.40;99.10
6110;DHT22;3085;49.444;11.054;2023-05-19T14:34:14;20.40;99.10
6110;DHT22;3085;49.444;11.054;2023-05-19T14:36:45;20.40;99.10
6110;DHT22;3085;49.444;11.054;2023-05-19T14:39:12;20.60;99.30
6110;DHT22;3085;49.444;11.054;2023-05-19T14:41:38;20.70;99.80
6110;DHT22;3085;49.444;11.054;2023-05-19T14:44:05;20.80;99.20
6110;DHT22;3085;49.444;11.054;2023-05-19T14:46:34;20.90;99.40
6110;DHT22;3085;49.444;11.054;2023-05-19T14:49:01;20.80;99.00
6110;DHT22;3085;49.444;11.054;2023-05-19T14:51:28;21.00;99.30
6110;DHT22;3085;49.444;11.054;2023-05-19T14:53:56;20.90;99.40
6110;DHT22;3085;49.444;11.054;2023-05-19T14:56:26;21.00;98.90
6110;DHT22;3085;49.444;11.054;2023-05-19T14:58:53;20.70;98.70
6110;DHT22;3085;49.444;11.054;2023-05-19T15:01:20;20.70;98.60
6110;DHT22;3085;49.444;11.054;2023-05-19T15:03:49;20.60;99.30
6110;DHT22;3085;49.444;11.054;2023-05-19T15:06:15;20.50;99.00
6110;DHT22;3085;49.444;11.054;2023-05-19T15:08:42;20.50;99.10
6110;DHT22;3085;49.444;11.054;2023-05-19T15:11:09;20.50;98.90
6110;DHT22;3085;49.444;11.054;2023-05-19T15:13:36;20.50;99.70
6110;DHT22;3085;49.444;11.054;2023-05-19T15:16:03;20.40;98.90
6110;DHT22;3085;49.444;11.054;2023-05-19T15:18:34;20.50;99.40
6110;DHT22;3085;49.444;11.054;2023-05-19T15:21:02;20.30;99.30
6110;DHT22;3085;49.444;11.054;2023-05-19T15:23:29;20.40;99.90
6110;DHT22;3085;49.444;11.054;2023-05-19T15:25:56;20.30;99.60
6110;DHT22;3085;49.444;11.054;2023-05-19T15:28:23;20.30;99.80
6110;DHT22;3085;49.444;11.054;2023-05-19T15:30:51;20.20;99.90
6110;DHT22;3085;49.444;11.054;2023-05-19T15:33:17;20.20;99.90
6110;DHT22;3085;49.444;11.054;2023-05-19T15:35:44;20.20;99.90
6110;DHT22;3085;49.444;11.054;2023-05-19T15:38:17;20.00;99.90
6110;DHT22;3085;49.444;11.054;2023-05-19T15:40:44;19.90;99.90
6110;DHT22;3085;49.444;11.054;2023-05-19T15:43:11;19.90;99.90
6110;DHT22;3085;49.444;11.054;2023-05-19T15:45:37;18.40;99.90
6110;DHT22;3085;49.444;11.054;2023-05-19T15:48:05;19.90;99.90
6110;DHT22;3085;49.444;11.054;2023-05-19T15:50:32;19.90;99.90
6110;DHT22;3085;49.444;11.054;2023-05-19T15:52:59;19.80;99.90
6110;DHT22;3085;49.444;11.054;2023-05-19T15:55:27;19.90;99.90
6110;DHT22;3085;49.444;11.054;2023-05-19T15:57:54;19.90;99.90